Time;durP1;ratioP1;P1;durP2;ratioP2;P2;SDS_P1;SDS_P2;PMS_P1;PMS_P2;Temp;Humidity;BMP_temperature;BMP_pressure;BME280_temperature;BME280_humidity;BME280_pressure;Samples;Min_cycle;Max_cycle;Signal;HPM_P1;HPM_P2
2023/01/29 00:02:00;;;;;;;39.07;32.63;;;;;;;4.41;100.00;102496.66;5093693;28;20425;-43
2023/01/29 00:04:29;;;;;;;32.40;30.10;;;;;;;4.40;100.00;102489.69;5092996;28;20465;-45
2023/01/29 00:06:57;;;;;;;34.87;31.27;;;;;;;4.40;100.00;102498.47;5093264;28;20483;-45
2023/01/29 00:09:24;;;;;;;36.13;32.60;;;;;;;4.39;100.00;102496.78;5093545;28;20454;-43
2023/01/29 00:11:52;;;;;;;34.07;31.40;;;;;;;4.40;100.00;102494.97;5093288;28;20456;-45
2023/01/29 00:14:20;;;;;;;33.20;30.47;;;;;;;4.39;100.00;102499.41;5092762;28;20461;-46
2023/01/29 00:16:47;;;;;;;36.17;32.40;;;;;;;4.37;100.00;102503.97;5093342;28;20448;-44
2023/01/29 00:19:16;;;;;;;31.60;29.60;;;;;;;4.38;100.00;102504.81;5092158;28;20504;-46
2023/01/29 00:21:45;;;;;;;34.63;31.70;;;;;;;4.38;100.00;102510.09;5092990;28;20503;-46
2023/01/29 00:24:13;;;;;;;32.70;30.07;;;;;;;4.33;100.00;102499.88;5092586;28;20453;-44
2023/01/29 00:26:41;;;;;;;31.87;29.63;;;;;;;4.32;100.00;102490.28;5092842;28;20465;-45
2023/01/29 00:29:09;;;;;;;30.10;28.20;;;;;;;4.35;100.00;102489.19;5093074;28;20481;-43
2023/01/29 00:31:37;;;;;;;32.00;29.80;;;;;;;4.34;100.00;102477.78;5093034;28;20433;-44
2023/01/29 00:34:05;;;;;;;31.50;29.47;;;;;;;4.34;100.00;102477.78;5092232;28;20454;-44
2023/01/29 00:36:33;;;;;;;32.30;30.00;;;;;;;4.32;100.00;102484.16;5093013;28;20432;-44
2023/01/29 00:39:09;;;;;;;30.77;28.97;;;;;;;4.30;100.00;102486.06;5086666;28;20454;-43
2023/01/29 00:47:29;;;;;;;29.10;27.50;;;;;;;4.26;100.00;102492.53;5092600;28;20464;-45
2023/01/29 00:49:57;;;;;;;30.20;28.23;;;;;;;4.24;100.00;102492.63;5092681;28;20844;-44
2023/01/29 00:52:24;;;;;;;29.77;27.70;;;;;;;4.23;100.00;102493.59;5092472;28;20456;-49
2023/01/29 00:54:55;;;;;;;31.80;29.80;;;;;;;4.22;100.00;102493.69;5091786;28;20457;-46
2023/01/29 00:57:23;;;;;;;30.43;28.23;;;;;;;4.20;100.00;102485.06;5092630;28;20495;-45
2023/01/29 00:59:51;;;;;;;28.93;27.17;;;;;;;4.20;100.00;102483.25;5092272;28;20469;-45
2023/01/29 01:05:09;;;;;;;30.73;28.60;;;;;;;4.19;100.00;102484.19;5091749;28;20460;-47
2023/01/29 01:07:36;;;;;;;30.67;28.50;;;;;;;4.20;100.00;102488.53;5092289;28;20436;-47
2023/01/29 01:10:20;;;;;;;32.80;29.97;;;;;;;4.22;100.00;102481.34;5092426;28;20984;-44
2023/01/29 01:12:50;;;;;;;35.57;30.60;;;;;;;4.22;100.00;102478.69;5092380;28;20421;-46
2023/01/29 01:15:19;;;;;;;30.67;28.73;;;;;;;4.25;100.00;102469.69;5091583;28;20461;-43
2023/01/29 01:17:47;;;;;;;32.30;29.47;;;;;;;4.27;100.00;102481.00;5092008;28;20430;-48
2023/01/29 01:20:15;;;;;;;30.73;28.20;;;;;;;4.27;100.00;102478.38;5092239;28;20572;-44
2023/01/29 01:22:43;;;;;;;33.80;30.70;;;;;;;4.28;100.00;102467.69;5092206;28;20429;-45
2023/01/29 01:25:12;;;;;;;31.23;28.87;;;;;;;4.31;100.00;102458.69;5091330;28;20557;-44
2023/01/29 01:27:40;;;;;;;30.63;28.53;;;;;;;4.33;100.00;102462.06;5091973;28;20957;-43
2023/01/29 01:30:11;;;;;;;30.73;28.10;;;;;;;4.36;100.00;102462.66;5091832;28;20965;-43
2023/01/29 01:32:39;;;;;;;29.70;28.00;;;;;;;4.38;100.00;102465.19;5092094;28;20433;-44
2023/01/29 01:35:08;;;;;;;31.87;29.67;;;;;;;4.38;100.00;102454.63;5091218;28;20510;-46
2023/01/29 01:37:37;;;;;;;30.23;28.23;;;;;;;4.38;100.00;102465.19;5092164;28;20494;-44
2023/01/29 01:40:11;;;;;;;29.63;27.50;;;;;;;4.37;100.00;102474.06;5083214;28;20477;-43
2023/01/29 01:42:40;;;;;;;29.70;27.60;;;;;;;4.33;100.00;102476.09;5091801;28;20445;-45
2023/01/29 01:45:19;;;;;;;30.33;28.33;;;;;;;4.32;100.00;102463.00;5090956;28;20480;-44
2023/01/29 01:47:50;;;;;;;29.60;27.50;;;;;;;4.28;100.00;102462.41;5091691;28;20930;-47
2023/01/29 01:50:22;;;;;;;29.77;27.63;;;;;;;4.25;100.00;102465.25;5091557;28;20536;-49
2023/01/29 01:52:55;;;;;;;31.50;28.40;;;;;;;4.21;100.00;102465.63;5091862;28;20513;-45
2023/01/29 01:55:26;;;;;;;31.83;29.20;;;;;;;4.16;100.00;102450.09;5090886;28;21057;-44
2023/01/29 01:57:59;;;;;;;29.77;27.70;;;;;;;4.10;100.00;102447.91;5091891;28;20429;-45
2023/01/29 02:00:27;;;;;;;29.80;27.50;;;;;;;4.04;100.00;102436.97;5091554;28;20966;-46
2023/01/29 02:11:21;;;;;;;31.10;27.90;;;;;;;3.80;100.00;102426.41;5095492;28;20427;-46
2023/01/29 02:13:52;;;;;;;30.40;28.30;;;;;;;3.79;100.00;102415.00;5095049;28;20477;-47
2023/01/29 02:16:20;;;;;;;35.00;29.80;;;;;;;3.80;100.00;102403.50;5095408;28;20852;-43
2023/01/29 02:18:49;;;;;;;30.97;28.47;;;;;;;3.75;100.00;102407.44;5095500;28;20457;-45
2023/01/29 02:21:45;;;;;;;29.87;27.60;;;;;;;3.77;100.00;102403.72;5095453;28;20476;-43
2023/01/29 02:24:54;;;;;;;30.37;27.87;;;;;;;3.77;100.00;102394.97;5094796;28;20822;-46
2023/01/29 02:27:27;;;;;;;31.47;29.17;;;;;;;3.76;100.00;102388.84;5095434;28;21008;-43
2023/01/29 02:30:03;;;;;;;31.40;28.67;;;;;;;3.74;100.00;102382.84;5095501;28;20453;-44
2023/01/29 02:32:39;;;;;;;32.13;29.33;;;;;;;3.77;100.00;102374.69;5095356;28;20429;-43
2023/01/29 02:35:28;;;;;;;31.40;28.80;;;;;;;3.74;100.00;102372.28;5094495;28;20548;-44
2023/01/29 02:38:05;;;;;;;31.00;28.20;;;;;;;3.80;100.00;102373.63;5095303;28;20864;-43
2023/01/29 02:40:40;;;;;;;30.70;28.80;;;;;;;3.83;100.00;102379.53;5089199;28;20464;-43
2023/01/29 02:43:17;;;;;;;30.43;27.83;;;;;;;3.85;100.00;102367.06;5094696;28;20417;-42
2023/01/29 02:45:51;;;;;;;31.47;29.07;;;;;;;3.86;100.00;102360.84;5094986;28;20432;-48
2023/01/29 02:48:22;;;;;;;30.83;28.80;;;;;;;3.85;100.00;102363.59;5095087;28;20536;-44
2023/01/29 02:50:58;;;;;;;31.20;29.27;;;;;;;3.81;100.00;102354.22;5094983;28;20433;-44
2023/01/29 02:53:32;;;;;;;32.37;30.27;;;;;;;3.79;100.00;102354.31;5094405;28;20432;-43
2023/01/29 02:56:07;;;;;;;31.90;29.47;;;;;;;3.76;100.00;102353.72;5094814;28;20436;-43
2023/01/29 02:58:41;;;;;;;32.50;30.50;;;;;;;3.75;100.00;102357.31;5094946;28;20453;-44
2023/01/29 03:01:15;;;;;;;31.03;29.20;;;;;;;3.75;100.00;102352.88;5094838;28;20472;-44
2023/01/29 03:03:47;;;;;;;30.87;28.53;;;;;;;3.77;100.00;102348.31;5094207;28;20803;-43
2023/01/29 03:06:21;;;;;;;32.87;30.40;;;;;;;3.77;100.00;102347.47;5094141;28;20923;-45
2023/01/29 03:08:55;;;;;;;30.73;28.57;;;;;;;3.77;100.00;102356.22;5094609;28;20477;-48
2023/01/29 03:11:23;;;;;;;31.03;29.03;;;;;;;3.77;100.00;102363.31;5094605;28;20770;-43
2023/01/29 03:13:56;;;;;;;32.00;28.70;;;;;;;3.77;100.00;102361.50;5094070;28;20462;-45
2023/01/29 03:16:33;;;;;;;29.30;27.60;;;;;;;3.79;100.00;102364.06;5094454;28;20426;-44
2023/01/29 03:19:05;;;;;;;29.30;27.30;;;;;;;3.78;100.00;102362.34;5094235;28;20522;-44
2023/01/29 03:21:53;;;;;;;29.00;27.20;;;;;;;3.81;100.00;102376.16;5094610;28;20465;-44
2023/01/29 03:33:03;;;;;;;30.20;28.43;;;;;;;3.87;100.00;102362.53;5102911;28;20429;-48
2023/01/29 03:35:36;;;;;;;30.37;28.00;;;;;;;3.88;100.00;102358.91;5103023;28;20458;-47
2023/01/29 03:38:04;;;;;;;29.70;28.20;;;;;;;3.90;100.00;102357.03;5103576;28;20520;-46
2023/01/29 03:40:39;;;;;;;29.60;27.20;;;;;;;3.91;100.00;102358.69;5097011;28;21011;-51
2023/01/29 03:43:13;;;;;;;29.13;27.50;;;;;;;3.94;100.00;102367.34;5103566;28;20491;-47
2023/01/29 03:45:53;;;;;;;28.73;27.13;;;;;;;3.95;100.00;102369.00;5102760;28;20444;-46
2023/01/29 03:48:32;;;;;;;30.07;28.27;;;;;;;3.97;100.00;102367.97;5103523;28;20441;-47
2023/01/29 03:51:10;;;;;;;29.60;27.50;;;;;;;3.99;100.00;102365.19;5103743;28;20432;-46
2023/01/29 03:53:43;;;;;;;28.70;26.47;;;;;;;3.99;100.00;102368.69;5102528;28;20463;-47
2023/01/29 03:56:25;;;;;;;29.77;28.07;;;;;;;4.00;100.00;102367.75;5103448;28;20429;-47
2023/01/29 03:58:58;;;;;;;28.57;26.80;;;;;;;4.02;100.00;102368.44;5103446;28;20454;-46
2023/01/29 04:01:33;;;;;;;28.63;26.90;;;;;;;4.02;100.00;102371.09;5103758;28;20465;-46
2023/01/29 04:04:09;;;;;;;28.27;26.60;;;;;;;4.06;100.00;102367.25;5102551;28;20476;-49
2023/01/29 04:06:40;;;;;;;28.27;26.63;;;;;;;4.07;100.00;102366.31;5103029;28;20940;-47
2023/01/29 04:09:13;;;;;;;29.17;27.33;;;;;;;4.08;100.00;102373.28;5104369;28;20445;-45
2023/01/29 04:11:45;;;;;;;28.50;27.03;;;;;;;4.11;100.00;102362.50;5103778;28;20425;-46
2023/01/29 04:14:14;;;;;;;29.53;27.33;;;;;;;4.12;100.00;102350.13;5102969;28;20461;-52
2023/01/29 04:16:47;;;;;;;28.93;27.13;;;;;;;4.13;100.00;102351.78;5103323;28;20443;-47
2023/01/29 04:19:16;;;;;;;30.00;27.43;;;;;;;4.16;100.00;102346.28;5102113;28;20466;-49
2023/01/29 04:21:48;;;;;;;28.00;26.47;;;;;;;4.17;100.00;102338.25;5102167;28;20465;-45
2023/01/29 04:24:16;;;;;;;28.93;27.10;;;;;;;4.15;100.00;102318.22;5101999;28;20461;-47
2023/01/29 04:26:55;;;;;;;28.33;26.70;;;;;;;4.16;100.00;102309.31;5102220;28;20996;-50
2023/01/29 04:29:37;;;;;;;28.73;26.73;;;;;;;4.16;100.00;102315.44;5101985;28;20449;-48
2023/01/29 04:32:14;;;;;;;28.70;26.87;;;;;;;4.13;100.00;102320.13;5102778;28;20429;-49
2023/01/29 04:34:55;;;;;;;31.33;28.47;;;;;;;4.15;100.00;102305.84;5101655;28;20463;-45
2023/01/29 04:37:35;;;;;;;29.70;27.43;;;;;;;4.16;100.00;102319.88;5102643;28;20478;-47
2023/01/29 04:40:14;;;;;;;29.63;27.90;;;;;;;4.15;100.00;102308.47;5095824;28;20457;-44
2023/01/29 04:42:50;;;;;;;28.90;26.93;;;;;;;4.17;100.00;102303.94;5102055;28;20469;-46
2023/01/29 04:45:24;;;;;;;29.97;27.67;;;;;;;4.16;100.00;102304.88;5102174;28;20472;-49
2023/01/29 04:48:05;;;;;;;29.00;27.30;;;;;;;4.17;100.00;102295.16;5102471;28;20430;-46
2023/01/29 04:50:38;;;;;;;29.63;27.53;;;;;;;4.16;100.00;102289.03;5102145;28;20483;-47
2023/01/29 04:53:15;;;;;;;30.20;28.03;;;;;;;4.16;100.00;102286.41;5102007;28;20422;-49
2023/01/29 04:55:49;;;;;;;30.83;28.87;;;;;;;4.17;100.00;102318.94;5102169;28;20437;-48
2023/01/29 04:58:26;;;;;;;30.90;28.90;;;;;;;4.17;100.00;102326.84;5102618;28;20430;-46
2023/01/29 05:00:54;;;;;;;31.97;29.80;;;;;;;4.17;100.00;102334.78;5102276;28;20445;-46
2023/01/29 05:03:26;;;;;;;30.50;28.40;;;;;;;4.18;100.00;102337.28;5101658;28;20479;-48
2023/01/29 05:05:58;;;;;;;31.00;29.00;;;;;;;4.20;100.00;102332.75;5101852;28;20426;-50
2023/01/29 05:08:28;;;;;;;30.43;28.57;;;;;;;4.22;100.00;102314.13;5101742;28;20446;-49
2023/01/29 05:10:57;;;;;;;30.93;28.03;;;;;;;4.21;100.00;102284.25;5102219;28;20429;-45
2023/01/29 05:13:28;;;;;;;29.87;28.00;;;;;;;4.22;100.00;102300.94;5101209;28;20782;-48
2023/01/29 05:16:00;;;;;;;32.03;29.37;;;;;;;4.24;100.00;102288.47;5102017;28;20418;-45
2023/01/29 05:18:29;;;;;;;30.83;28.53;;;;;;;4.25;100.00;102275.13;5101608;28;20464;-51
2023/01/29 05:21:02;;;;;;;29.87;27.77;;;;;;;4.24;100.00;102268.16;5102157;28;20515;-47
2023/01/29 05:23:29;;;;;;;30.50;28.53;;;;;;;4.29;100.00;102273.94;5100771;28;20536;-44
2023/01/29 05:25:57;;;;;;;30.10;28.43;;;;;;;4.28;100.00;102263.50;5101742;28;20439;-47
2023/01/29 05:28:24;;;;;;;30.63;28.80;;;;;;;4.28;100.00;102259.06;5101495;28;20455;-48
2023/01/29 05:30:54;;;;;;;31.73;29.70;;;;;;;4.30;100.00;102257.13;5102238;28;20430;-47
2023/01/29 05:33:26;;;;;;;30.67;28.53;;;;;;;4.31;100.00;102245.63;5100962;28;20417;-46
2023/01/29 05:35:54;;;;;;;30.10;28.40;;;;;;;4.33;100.00;102253.44;5101366;28;20425;-49
2023/01/29 05:38:24;;;;;;;29.87;28.33;;;;;;;4.32;100.00;102252.59;5099938;28;21107;-46
2023/01/29 05:40:51;;;;;;;30.53;28.70;;;;;;;4.33;100.00;102248.16;5094039;28;20435;-50
2023/01/29 05:43:21;;;;;;;30.37;28.40;;;;;;;4.35;100.00;102243.56;5101472;28;20477;-46
2023/01/29 05:45:53;;;;;;;30.17;28.53;;;;;;;4.38;100.00;102243.34;5101566;28;20462;-49
2023/01/29 05:48:20;;;;;;;30.80;29.23;;;;;;;4.41;100.00;102232.53;5101906;28;20464;-50
2023/01/29 05:50:48;;;;;;;29.37;27.80;;;;;;;4.42;100.00;102236.88;5101775;28;20917;-48
2023/01/29 05:53:16;;;;;;;29.57;27.77;;;;;;;4.42;100.00;102236.88;5100974;28;20425;-47
2023/01/29 05:55:46;;;;;;;28.90;27.60;;;;;;;4.40;100.00;102222.91;5099335;28;20432;-48
2023/01/29 05:58:14;;;;;;;29.73;27.30;;;;;;;4.41;100.00;102216.69;5101366;28;20425;-54
2023/01/29 06:00:42;;;;;;;29.00;27.50;;;;;;;4.44;100.00;102219.94;5101449;28;20520;-48
2023/01/29 06:03:09;;;;;;;28.67;26.70;;;;;;;4.44;100.00;102224.38;5100605;28;20469;-47
2023/01/29 06:05:38;;;;;;;28.07;26.63;;;;;;;4.45;100.00;102218.09;5100951;28;20433;-48
2023/01/29 06:08:07;;;;;;;27.27;26.07;;;;;;;4.46;100.00;102215.34;5099756;28;20433;-48
2023/01/29 06:10:35;;;;;;;28.40;26.70;;;;;;;4.47;100.00;102210.91;5101151;28;20432;-47
2023/01/29 06:13:04;;;;;;;29.13;27.20;;;;;;;4.47;100.00;102208.28;5101052;28;20451;-46
2023/01/29 06:15:31;;;;;;;28.90;27.17;;;;;;;4.51;100.00;102206.25;5100825;28;20461;-51
2023/01/29 06:17:59;;;;;;;30.67;28.37;;;;;;;4.55;100.00;102202.38;5101482;28;20433;-48
2023/01/29 06:20:27;;;;;;;30.27;27.93;;;;;;;4.54;100.00;102196.25;5101295;28;20440;-47
2023/01/29 06:22:55;;;;;;;31.00;28.90;;;;;;;4.59;100.00;102198.53;5100376;28;20473;-49
2023/01/29 06:25:22;;;;;;;30.20;28.47;;;;;;;4.60;100.00;102200.22;5099870;28;21054;-46
2023/01/29 06:27:50;;;;;;;29.37;27.70;;;;;;;4.64;100.00;102210.41;5099344;28;20428;-46
2023/01/29 06:30:19;;;;;;;30.67;28.90;;;;;;;4.63;100.00;102198.16;5098822;28;20463;-48
2023/01/29 06:32:47;;;;;;;31.63;29.77;;;;;;;4.66;100.00;102197.09;5100472;28;20427;-49
2023/01/29 06:35:15;;;;;;;31.43;29.73;;;;;;;4.65;100.00;102190.13;5099992;28;20457;-47
2023/01/29 06:37:42;;;;;;;33.20;30.27;;;;;;;4.68;100.00;102184.59;5101798;28;20467;-47
2023/01/29 06:40:11;;;;;;;30.93;28.80;;;;;;;4.66;100.00;102183.88;5095109;28;20523;-47
2023/01/29 06:42:39;;;;;;;31.77;29.07;;;;;;;4.66;100.00;102182.06;5102177;28;20469;-49
2023/01/29 06:45:08;;;;;;;29.33;27.43;;;;;;;4.69;100.00;102173.06;5101290;28;20457;-48
2023/01/29 06:47:37;;;;;;;29.97;28.00;;;;;;;4.68;100.00;102169.59;5102048;28;20436;-44
2023/01/29 06:50:05;;;;;;;31.00;29.03;;;;;;;4.71;100.00;102168.50;5102413;28;20449;-48
2023/01/29 06:52:33;;;;;;;31.60;29.40;;;;;;;4.70;100.00;102169.44;5106116;28;20426;-46
2023/01/29 06:55:00;;;;;;;33.40;30.87;;;;;;;4.70;100.00;102167.63;5104577;28;20461;-47
2023/01/29 06:57:28;;;;;;;33.57;31.03;;;;;;;4.69;100.00;102158.03;5104858;28;20426;-47
2023/01/29 06:59:56;;;;;;;32.83;30.40;;;;;;;4.71;100.00;102152.63;5105203;28;20527;-45
2023/01/29 07:02:24;;;;;;;33.37;31.23;;;;;;;4.69;100.00;102157.22;5105061;28;20436;-44
2023/01/29 07:04:53;;;;;;;32.77;30.43;;;;;;;4.71;100.00;102156.13;5103712;28;21411;-46
2023/01/29 07:07:21;;;;;;;35.13;32.13;;;;;;;4.69;100.00;102157.22;5105727;28;20435;-46
2023/01/29 07:09:48;;;;;;;33.30;30.90;;;;;;;4.66;100.00;102163.56;5105706;28;21059;-48
2023/01/29 07:12:17;;;;;;;32.73;30.73;;;;;;;4.66;100.00;102171.47;5105390;28;20429;-44
2023/01/29 07:14:44;;;;;;;32.23;30.00;;;;;;;4.66;100.00;102163.56;5100572;28;20455;-47
2023/01/29 07:17:12;;;;;;;33.23;30.47;;;;;;;4.67;100.00;102170.53;5105793;28;20426;-48
2023/01/29 07:19:40;;;;;;;31.80;30.00;;;;;;;4.65;100.00;102163.69;5105680;28;21053;-46
2023/01/29 07:22:09;;;;;;;32.33;30.50;;;;;;;4.65;100.00;102161.91;5105110;28;20487;-47
2023/01/29 07:24:36;;;;;;;32.00;30.00;;;;;;;4.63;100.00;102155.88;5104554;28;20464;-47
2023/01/29 07:27:04;;;;;;;31.60;29.63;;;;;;;4.61;100.00;102160.47;5105177;28;20444;-49
2023/01/29 07:29:32;;;;;;;30.90;29.03;;;;;;;4.63;100.00;102153.25;5103731;28;20453;-47
2023/01/29 07:32:00;;;;;;;29.13;27.73;;;;;;;4.66;100.00;102157.47;5101235;28;20985;-45
2023/01/29 07:34:27;;;;;;;30.40;28.80;;;;;;;4.68;100.00;102150.25;5092894;28;20462;-44
2023/01/29 07:36:55;;;;;;;31.10;29.60;;;;;;;4.67;100.00;102152.03;5093429;28;20433;-45
2023/01/29 07:39:24;;;;;;;30.83;28.87;;;;;;;4.70;100.00;102150.94;5088999;28;20548;-45
2023/01/29 07:41:52;;;;;;;30.00;28.60;;;;;;;4.72;100.00;102154.31;5090353;28;20554;-43
2023/01/29 07:44:19;;;;;;;28.13;26.80;;;;;;;4.74;100.00;102149.75;5092800;28;20480;-44
2023/01/29 07:46:47;;;;;;;29.67;28.17;;;;;;;4.77;100.00;102141.56;5093158;28;20923;-44
2023/01/29 07:49:15;;;;;;;29.13;27.53;;;;;;;4.82;100.00;102144.66;5093466;28;20461;-43
2023/01/29 07:51:43;;;;;;;30.13;28.33;;;;;;;4.80;100.00;102142.16;5092871;28;21141;-44
2023/01/29 07:54:11;;;;;;;29.50;27.90;;;;;;;4.80;100.00;102142.16;5092552;28;20465;-43
2023/01/29 07:56:40;;;;;;;30.50;28.60;;;;;;;4.85;100.00;102147.91;5093496;28;20433;-43
2023/01/29 07:59:08;;;;;;;31.13;29.23;;;;;;;4.83;100.00;102141.06;5093091;28;20596;-44
2023/01/29 08:01:35;;;;;;;32.23;30.47;;;;;;;4.84;100.00;102148.00;5092136;28;20525;-49
2023/01/29 08:04:03;;;;;;;31.13;29.43;;;;;;;4.88;100.00;102152.09;5092326;28;20475;-46
2023/01/29 08:06:31;;;;;;;31.43;29.57;;;;;;;4.95;100.00;102156.78;5093321;28;20429;-43
2023/01/29 08:08:58;;;;;;;30.40;28.70;;;;;;;4.98;100.00;102153.88;5093055;28;20454;-44
2023/01/29 08:11:26;;;;;;;30.37;28.47;;;;;;;5.03;100.00;102148.19;5092767;28;20422;-44
2023/01/29 08:13:56;;;;;;;31.23;29.57;;;;;;;5.04;100.00;102152.53;5092578;28;20493;-47
2023/01/29 08:16:23;;;;;;;31.10;29.30;;;;;;;5.10;100.00;102151.16;5092359;28;20430;-44
2023/01/29 08:18:51;;;;;;;31.40;29.73;;;;;;;5.09;100.00;102149.47;5092354;28;20465;-45
2023/01/29 08:21:19;;;;;;;31.60;29.60;;;;;;;5.07;100.00;102149.63;5092337;28;20425;-43
2023/01/29 08:23:46;;;;;;;32.73;30.13;;;;;;;5.11;100.00;102145.75;5092348;28;20467;-44
2023/01/29 08:26:14;;;;;;;31.57;29.27;;;;;;;5.12;100.00;102136.00;5092228;28;21068;-45
2023/01/29 08:28:41;;;;;;;31.83;29.87;;;;;;;5.15;100.00;102135.75;5092403;28;20454;-44
2023/01/29 08:31:15;;;;;;;31.77;30.10;;;;;;;5.18;100.00;102149.56;5091914;28;20434;-45
2023/01/29 08:33:42;;;;;;;31.73;29.83;;;;;;;5.18;100.00;102138.16;5091801;28;20986;-44
2023/01/29 08:36:10;;;;;;;29.63;27.90;;;;;;;5.23;100.00;102138.59;5092232;28;20436;-43
2023/01/29 08:38:38;;;;;;;29.87;28.07;;;;;;;5.25;100.00;102136.69;5087414;28;20450;-43
2023/01/29 08:41:07;;;;;;;30.17;28.20;;;;;;;5.27;100.00;102134.72;5090866;28;20422;-43
2023/01/29 08:43:35;;;;;;;31.80;30.10;;;;;;;5.27;100.00;102134.72;5091880;28;20518;-46
2023/01/29 08:46:04;;;;;;;32.80;31.10;;;;;;;5.31;100.00;102133.53;5092164;28;20421;-43
2023/01/29 08:48:34;;;;;;;32.20;30.63;;;;;;;5.29;100.00;102119.56;5091960;28;20475;-44
2023/01/29 08:51:03;;;;;;;34.57;32.33;;;;;;;5.29;100.00;102103.69;5092311;28;20500;-47
2023/01/29 08:53:31;;;;;;;33.33;31.43;;;;;;;5.31;100.00;102110.56;5091178;28;20572;-46
2023/01/29 08:55:59;;;;;;;32.63;30.90;;;;;;;5.34;100.00;102097.06;5091156;28;20445;-45
2023/01/29 08:58:26;;;;;;;35.13;33.03;;;;;;;5.38;100.00;102105.56;5091675;28;20822;-44
2023/01/29 09:00:54;;;;;;;35.73;33.33;;;;;;;5.36;100.00;102084.56;5092070;28;20429;-43
2023/01/29 09:03:22;;;;;;;35.73;33.60;;;;;;;5.40;100.00;102074.56;5091697;28;20851;-43
2023/01/29 09:05:51;;;;;;;35.87;33.37;;;;;;;5.43;100.00;102064.56;5091674;28;20796;-44
2023/01/29 09:08:18;;;;;;;33.67;31.43;;;;;;;5.45;100.00;102059.13;5091799;28;20430;-43
2023/01/29 09:10:46;;;;;;;32.57;30.80;;;;;;;5.50;100.00;102057.75;5091677;28;20915;-45
2023/01/29 09:13:14;;;;;;;31.97;30.33;;;;;;;5.62;100.00;102062.94;5091336;28;20426;-44
2023/01/29 09:15:41;;;;;;;31.60;30.10;;;;;;;5.64;100.00;102061.88;5091418;28;20967;-44
2023/01/29 09:18:09;;;;;;;30.50;29.10;;;;;;;5.65;100.00;102068.81;5091588;28;20437;-47
2023/01/29 09:20:37;;;;;;;30.77;29.37;;;;;;;5.72;100.00;102063.84;5091743;28;20433;-45
2023/01/29 09:23:08;;;;;;;30.60;29.10;;;;;;;5.80;100.00;102064.84;5091435;28;20429;-45
2023/01/29 09:25:37;;;;;;;30.70;29.30;;;;;;;5.92;100.00;102062.97;5090848;28;20484;-49
2023/01/29 09:28:06;;;;;;;29.60;28.20;;;;;;;5.97;100.00;102079.31;5091642;28;20852;-46
2023/01/29 09:30:36;;;;;;;32.90;31.00;;;;;;;6.03;100.00;102069.00;5091627;28;20424;-46
2023/01/29 09:33:04;;;;;;;30.40;28.90;;;;;;;6.00;100.00;102066.59;5091393;28;20858;-46
2023/01/29 09:35:32;;;;;;;30.47;28.87;;;;;;;5.92;100.00;102058.50;5090753;28;20462;-44
2023/01/29 09:38:01;;;;;;;31.90;30.10;;;;;;;5.89;100.00;102053.47;5091206;28;20448;-44
2023/01/29 09:40:35;;;;;;;32.50;30.50;;;;;;;5.89;100.00;102048.19;5091237;28;20455;-44
2023/01/29 09:43:06;;;;;;;34.17;32.27;;;;;;;5.93;100.00;102054.06;5091455;28;20416;-45
2023/01/29 09:45:35;;;;;;;33.47;31.00;;;;;;;5.92;100.00;102045.28;5090659;28;20843;-49
2023/01/29 09:48:05;;;;;;;35.33;33.10;;;;;;;5.94;100.00;102048.63;5091081;28;20421;-43
2023/01/29 09:50:38;;;;;;;35.77;33.37;;;;;;;6.00;100.00;102045.41;5091308;28;20504;-48
2023/01/29 09:53:17;;;;;;;35.57;33.30;;;;;;;6.04;100.00;102048.66;5091508;28;20418;-44
2023/01/29 09:55:50;;;;;;;36.73;34.53;;;;;;;6.05;100.00;102045.03;5090871;28;20445;-46
2023/01/29 09:58:22;;;;;;;34.17;32.27;;;;;;;5.99;100.00;102034.97;5091218;28;20521;-44
2023/01/29 10:00:59;;;;;;;33.10;31.27;;;;;;;5.98;100.00;102031.50;5091078;28;20459;-46
2023/01/29 10:03:43;;;;;;;32.43;30.47;;;;;;;5.99;100.00;102027.88;5090981;28;20440;-44
2023/01/29 10:06:29;;;;;;;31.97;30.13;;;;;;;5.99;100.00;102027.03;5091161;28;20422;-45
2023/01/29 10:09:23;;;;;;;33.10;31.20;;;;;;;5.91;100.00;102013.66;5090985;28;20460;-45
2023/01/29 10:11:59;;;;;;;33.20;31.47;;;;;;;5.84;100.00;102008.03;5090766;28;20426;-43
2023/01/29 10:14:39;;;;;;;33.80;31.60;;;;;;;5.83;100.00;102001.03;5090390;28;21231;-44
2023/01/29 10:17:23;;;;;;;32.60;30.90;;;;;;;5.86;100.00;101992.84;5091072;28;20496;-47
2023/01/29 10:20:06;;;;;;;33.27;31.47;;;;;;;5.84;100.00;101992.13;5091042;28;20990;-45
2023/01/29 10:23:00;;;;;;;35.23;33.23;;;;;;;5.99;100.00;101995.28;5090843;28;20859;-48
2023/01/29 10:25:27;;;;;;;34.93;33.00;;;;;;;6.00;100.00;101981.88;5091603;28;20472;-45
2023/01/29 10:28:00;;;;;;;35.10;33.00;;;;;;;6.03;100.00;101981.59;5094662;28;20436;-43
2023/01/29 10:30:32;;;;;;;33.23;31.33;;;;;;;6.03;100.00;101981.59;5094972;28;20429;-47
2023/01/29 10:33:03;;;;;;;33.57;31.23;;;;;;;6.01;100.00;101972.97;5094457;28;20422;-45
2023/01/29 10:35:34;;;;;;;35.20;33.07;;;;;;;6.02;100.00;101973.81;5092826;28;21008;-45
2023/01/29 10:38:18;;;;;;;33.17;31.13;;;;;;;6.17;100.00;101967.13;5094662;28;20432;-50
2023/01/29 10:40:52;;;;;;;32.07;30.33;;;;;;;6.36;100.00;101956.53;5090823;28;20452;-46
2023/01/29 10:43:29;;;;;;;33.80;31.60;;;;;;;6.48;100.00;101959.91;5084489;28;20440;-46
2023/01/29 10:46:12;;;;;;;34.17;32.03;;;;;;;6.44;100.00;101953.19;5094297;28;20465;-44
2023/01/29 10:48:49;;;;;;;33.70;31.50;;;;;;;6.38;100.00;101959.06;5094284;28;20453;-43
2023/01/29 10:51:30;;;;;;;36.47;34.13;;;;;;;6.24;100.00;101952.38;5094616;28;20455;-45
2023/01/29 10:54:12;;;;;;;36.03;33.57;;;;;;;6.17;100.00;101945.94;5094184;28;20461;-44
2023/01/29 10:56:55;;;;;;;35.33;32.90;;;;;;;6.07;100.00;101938.00;5094587;28;20479;-44
2023/01/29 10:59:39;;;;;;;36.63;33.73;;;;;;;5.97;100.00;101944.28;5094577;28;20449;-43
2023/01/29 11:02:15;;;;;;;38.10;35.60;;;;;;;5.92;100.00;101955.25;5094023;28;20429;-47
2023/01/29 11:04:42;;;;;;;36.53;34.23;;;;;;;5.89;100.00;101952.03;5093495;28;20498;-46
2023/01/29 11:07:11;;;;;;;37.27;34.63;;;;;;;5.84;100.00;101941.00;5094204;28;20991;-49
2023/01/29 11:09:43;;;;;;;37.60;34.90;;;;;;;5.79;100.00;101938.78;5094021;28;20460;-45
2023/01/29 11:12:14;;;;;;;37.63;35.33;;;;;;;5.80;100.00;101929.84;5094009;28;20433;-44
2023/01/29 11:14:50;;;;;;;36.67;34.00;;;;;;;5.77;100.00;101921.34;5093497;28;20453;-44
2023/01/29 11:17:19;;;;;;;36.13;33.60;;;;;;;5.76;100.00;101928.47;5094363;28;20440;-44
2023/01/29 11:19:50;;;;;;;37.33;34.93;;;;;;;5.72;100.00;101929.69;5094350;28;20465;-46
2023/01/29 11:22:19;;;;;;;37.70;35.30;;;;;;;5.66;100.00;101924.94;5094538;28;20455;-44
2023/01/29 11:25:06;;;;;;;38.83;35.90;;;;;;;5.53;100.00;101919.91;5093711;27;20473;-46
2023/01/29 11:27:39;;;;;;;38.00;34.83;;;;;;;5.47;100.00;101912.50;5094466;28;20418;-43
2023/01/29 11:30:16;;;;;;;41.40;36.90;;;;;;;5.45;100.00;101911.81;5094329;28;20457;-44
2023/01/29 11:32:44;;;;;;;39.10;36.23;;;;;;;5.38;100.00;101910.66;5094290;28;20490;-45
2023/01/29 11:35:21;;;;;;;38.83;36.03;;;;;;;5.38;100.00;101896.59;5093589;27;20457;-46
2023/01/29 11:37:49;;;;;;;39.63;36.60;;;;;;;5.50;100.00;101893.72;5093053;28;20425;-45
2023/01/29 11:40:35;;;;;;;37.80;35.10;;;;;;;5.63;100.00;101892.63;5085592;28;20468;-47
2023/01/29 11:43:18;;;;;;;39.07;35.57;;;;;;;5.76;100.00;101882.63;5093963;28;20431;-46
2023/01/29 11:45:49;;;;;;;38.27;35.50;;;;;;;5.78;100.00;101873.56;5093728;28;20519;-47
2023/01/29 11:48:19;;;;;;;36.43;33.87;;;;;;;5.72;100.00;101868.81;5093858;28;20470;-43
2023/01/29 11:50:57;;;;;;;38.20;35.17;;;;;;;5.69;100.00;101866.44;5092790;28;20429;-46
2023/01/29 11:53:36;;;;;;;35.63;32.93;;;;;;;5.69;100.00;101855.03;5093375;28;20790;-46
2023/01/29 11:56:16;;;;;;;35.93;33.33;;;;;;;5.64;100.00;101851.97;5093693;28;20783;-44